ADDS METAR Data INFO
IDs: Format: Raw Decoded Include TAF

Data at: 1016 UTC 12 Dec 2017

KSGT 120956Z AUTO 33011KT 10SM CLR 08/M01 A3013 RMK AO2 SLP201 T00781006
KSGT 120856Z AUTO 34017KT 10SM CLR 09/M01 A3012 RMK AO2 SLP200 T00941011 51024
KSGT 120756Z AUTO 34017KT 10SM CLR 11/M02 A3010 RMK AO2 SLP194 T01061017
KSGT 120656Z AUTO 33014KT 10SM CLR 11/M01 A3007 RMK AO2 SLP182 T01061011
KSGT 120556Z AUTO 32012KT 10SM CLR 12/M03 A3005 RMK AO2 SLP175 T01171028 10139 20083 402170011 51017
KSGT 120456Z AUTO 34007KT 10SM CLR 11/M02 A3004 RMK AO2 SLP173 T01061022
KSGT 120356Z AUTO 34003KT 10SM CLR 10/M02 A3004 RMK AO2 SLP173 T01001017
KSGT 120256Z AUTO 30010KT 10SM CLR 12/M01 A3000 RMK AO2 SLP159 T01171011 53016
KSGT 120156Z AUTO 25009KT 10SM CLR 12/M01 A2997 RMK AO2 SLP150 T01221006
KSGT 120056Z AUTO 24009KT 10SM CLR 12/M01 A2996 RMK AO2 SLP147 T01221006
KSGT 112356Z AUTO 22009KT 10SM CLR 12/01 A2995 RMK AO2 SLP143 T01220006 10217 20122 56007
KSGT 112256Z AUTO 22011KT 10SM CLR 17/M01 A2995 RMK AO2 SLP143 T01671011
KSGT 112156Z AUTO 23012KT 10SM CLR 21/M02 A2996 RMK AO2 SLP146 T02061022
KSGT 112056Z AUTO 24015KT 10SM CLR 22/M03 A2997 RMK AO2 SLP150 T02171033 56040
KSGT 111956Z AUTO 22015KT 10SM CLR 22/M02 A2999 RMK AO2 SLP155 T02171022
KSGT 111856Z AUTO 22015KT 10SM CLR 20/M01 A3004 RMK AO2 SLP173 T02001011
KSGT 111756Z AUTO 22013KT 10SM CLR 18/00 A3009 RMK AO2 SLP190 T01830000 10183 20011 58025
KSGT 111656Z AUTO 20009KT 10SM CLR 16/00 A3013 RMK AO2 SLP205 T01560000
KSGT 111556Z AUTO 20005KT 10SM CLR 12/01 A3016 RMK AO2 SLP214 T01220006
KSGT 111456Z AUTO 21006KT 10SM CLR 07/01 A3016 RMK AO2 SLP216 T00720011 58005
KSGT 111356Z AUTO 22005KT 10SM CLR 03/00 A3018 RMK AO2 SLP223 T00280000
KSGT 111256Z AUTO 23006KT 10SM CLR 01/M01 A3019 RMK AO2 SLP227 T00111011 FZRANO
KSGT 111056Z AUTO 25004KT 10SM CLR 03/M01 A3019 RMK AO2 SLP223 T00281011
KSGT 110956Z AUTO 25004KT 10SM CLR 03/M01 A3019 RMK AO2 SLP226 T00331006
KSGT 110856Z AUTO 26004KT 10SM CLR 03/M01 A3020 RMK AO2 SLP229 T00281006 57002
KSGT 110756Z AUTO 20008KT 10SM CLR 05/M01 A3021 RMK AO2 SLP231 T00501006
KSGT 110656Z AUTO 23005KT 10SM CLR 03/M01 A3020 RMK AO2 SLP229 T00331006
KSGT 110556Z AUTO 22005KT 10SM CLR 06/M01 A3021 RMK AO2 SLP231 T00611006 10089 20039 401561028 58001
KSGT 110456Z AUTO 24005KT 10SM CLR 06/M01 A3021 RMK AO2 SLP232 T00611006
KSGT 110356Z AUTO 23008KT 10SM CLR 06/M01 A3022 RMK AO2 SLP234 T00561006
KSGT 110256Z AUTO 24006KT 10SM CLR 08/00 A3021 RMK AO2 SLP233 T00780000 52007
KSGT 110156Z AUTO 23009KT 10SM CLR 07/00 A3021 RMK AO2 SLP231 T00720000
KSGT 110056Z AUTO 21010KT 10SM CLR 09/01 A3020 RMK AO2 SLP228 T00890006
KSGT 102356Z AUTO 21008KT 10SM CLR 08/00 A3019 RMK AO2 SLP226 T00830000 10156 20083 53003
KSGT 102256Z AUTO 21009KT 10SM CLR 12/00 A3018 RMK AO2 SLP222 T01170000